Time;durP1;ratioP1;P1;durP2;ratioP2;P2;SDS_P1;SDS_P2;PMS_P1;PMS_P2;Temp;Humidity;BMP_temperature;BMP_pressure;BME280_temperature;BME280_humidity;BME280_pressure;Samples;Min_cycle;Max_cycle;Signal;HPM_P1;HPM_P2
2022/11/07 00:00:12;;;;;;;3.33;1.10;;;10.60;99.90;;;;;;5024867;28;20033;-70
2022/11/07 00:02:38;;;;;;;7.97;1.10;;;10.60;99.90;;;;;;5023427;28;20536;-69
2022/11/07 00:05:04;;;;;;;2.38;0.98;;;10.60;99.90;;;;;;5024373;28;20125;-70
2022/11/07 00:07:30;;;;;;;4.50;1.65;;;10.60;99.90;;;;;;5025273;28;20090;-71
2022/11/07 00:09:55;;;;;;;5.63;1.17;;;10.60;99.90;;;;;;5023394;28;20120;-71
2022/11/07 00:12:21;;;;;;;6.10;1.63;;;10.60;99.90;;;;;;5024608;28;20151;-69
2022/11/07 00:14:47;;;;;;;4.68;1.52;;;10.60;99.90;;;;;;5021751;28;20116;-68
2022/11/07 00:17:12;;;;;;;7.05;1.52;;;10.60;99.90;;;;;;5024869;28;20582;-70
2022/11/07 00:19:38;;;;;;;2.10;1.33;;;10.60;99.90;;;;;;5023998;28;20084;-70
2022/11/07 00:22:04;;;;;;;4.00;0.95;;;10.60;99.90;;;;;;5024546;28;20517;-70
2022/11/07 00:24:29;;;;;;;6.32;1.75;;;10.70;99.90;;;;;;5022886;28;20036;-70
2022/11/07 00:26:55;;;;;;;3.88;1.45;;;10.60;99.90;;;;;;5027863;28;20482;-69
2022/11/07 00:29:20;;;;;;;5.13;0.93;;;10.60;99.90;;;;;;5027089;28;20116;-70
2022/11/07 00:31:47;;;;;;;6.40;1.23;;;10.70;99.90;;;;;;5026429;28;20494;-69
2022/11/07 00:34:12;;;;;;;4.05;0.90;;;10.70;99.90;;;;;;5028111;28;20033;-70
2022/11/07 00:36:38;;;;;;;12.63;1.92;;;10.70;99.90;;;;;;5026451;28;20033;-69
2022/11/07 00:39:04;;;;;;;7.40;0.93;;;10.70;99.90;;;;;;5026937;28;20060;-70
2022/11/07 00:41:30;;;;;;;6.82;1.00;;;10.70;99.90;;;;;;5027982;28;20021;-69
2022/11/07 00:43:55;;;;;;;7.13;0.80;;;10.70;99.90;;;;;;5026653;28;20437;-69
2022/11/07 00:46:21;;;;;;;6.78;1.05;;;10.70;99.90;;;;;;5028470;28;20482;-69
2022/11/07 00:48:47;;;;;;;7.18;0.98;;;10.70;99.90;;;;;;5027260;28;20456;-70
2022/11/07 00:51:18;;;;;;;7.65;1.30;;;10.70;99.90;;;;;;5027824;28;20401;-69
2022/11/07 00:53:44;;;;;;;7.22;1.40;;;10.70;99.90;;;;;;5022664;28;20038;-69
2022/11/07 00:56:12;;;;;;;9.35;1.25;;;10.70;99.90;;;;;;5023659;28;20036;-70
2022/11/07 00:58:38;;;;;;;4.18;0.82;;;10.70;99.90;;;;;;5026663;28;20716;-69
2022/11/07 01:01:19;;;;;;;5.25;0.82;;;10.70;99.90;;;;;;5027169;28;20025;-69
2022/11/07 01:06:31;;;;;;;5.38;1.83;;;10.70;99.90;;;;;;5027718;28;20037;-68
2022/11/07 01:08:57;;;;;;;11.32;1.65;;;10.70;99.90;;;;;;5026299;28;20033;-69
2022/11/07 01:11:26;;;;;;;9.10;1.70;;;10.60;99.90;;;;;;5027662;28;20529;-69
2022/11/07 01:13:56;;;;;;;6.45;1.88;;;10.60;99.90;;;;;;5024728;28;20033;-69
2022/11/07 01:16:22;;;;;;;7.45;1.10;;;10.70;99.90;;;;;;5027278;28;20052;-69
2022/11/07 01:18:47;;;;;;;10.65;1.15;;;10.70;99.90;;;;;;5024488;28;20038;-68
2022/11/07 01:21:13;;;;;;;7.82;1.05;;;10.70;99.90;;;;;;5025863;28;20037;-68
2022/11/07 01:23:38;;;;;;;8.30;1.05;;;10.70;99.90;;;;;;5025804;28;20037;-69
2022/11/07 01:26:06;;;;;;;6.55;1.40;;;10.80;99.90;;;;;;5025498;28;20095;-69
2022/11/07 01:28:33;;;;;;;3.90;0.60;;;10.80;99.90;;;;;;5027542;28;20108;-69
2022/11/07 01:31:02;;;;;;;6.82;1.63;;;10.80;99.90;;;;;;5024787;28;20034;-69
2022/11/07 01:33:28;;;;;;;8.95;0.77;;;10.80;99.90;;;;;;5025131;28;20034;-69
2022/11/07 01:35:54;;;;;;;6.43;2.17;;;10.80;99.90;;;;;;5025506;28;20033;-69
2022/11/07 01:38:19;;;;;;;5.20;0.82;;;10.80;99.90;;;;;;5026854;28;20125;-69
2022/11/07 01:43:51;;;;;;;11.57;1.45;;;10.90;99.90;;;;;;5026667;28;20041;-69
2022/11/07 01:46:18;;;;;;;6.80;1.60;;;10.80;99.90;;;;;;5023100;28;20125;-68
2022/11/07 01:48:49;;;;;;;11.52;1.15;;;10.80;99.90;;;;;;5025829;28;20456;-69
2022/11/07 01:51:17;;;;;;;6.25;1.40;;;10.80;99.90;;;;;;5024788;28;20124;-68
2022/11/07 01:53:43;;;;;;;16.00;2.25;;;10.80;99.90;;;;;;5023918;28;20536;-69
2022/11/07 01:56:13;;;;;;;12.77;1.17;;;10.80;99.90;;;;;;5027080;28;20053;-69
2022/11/07 01:58:40;;;;;;;5.82;1.35;;;10.90;99.90;;;;;;5022654;28;20034;-69
2022/11/07 02:01:06;;;;;;;7.10;1.60;;;10.80;99.90;;;;;;5022026;28;20083;-68
2022/11/07 02:03:32;;;;;;;6.97;1.10;;;10.80;99.90;;;;;;5025744;28;20033;-70
2022/11/07 02:06:13;;;;;;;6.55;1.17;;;10.70;99.90;;;;;;5018462;28;20120;-70
2022/11/07 02:08:41;;;;;;;25.40;1.70;;;10.80;99.90;;;;;;5026151;28;20721;-69
2022/11/07 02:11:08;;;;;;;5.35;1.17;;;10.70;99.90;;;;;;5022767;28;20033;-69
2022/11/07 02:13:34;;;;;;;4.60;0.95;;;10.70;99.90;;;;;;5024308;28;20033;-69
2022/11/07 02:16:02;;;;;;;11.38;1.00;;;10.70;99.90;;;;;;5025336;28;20049;-69
2022/11/07 02:18:28;;;;;;;10.40;1.30;;;10.60;99.90;;;;;;5017283;28;20437;-69
2022/11/07 02:21:02;;;;;;;9.77;1.10;;;10.60;99.90;;;;;;5019658;28;20099;-71
2022/11/07 02:23:40;;;;;;;8.75;1.25;;;10.60;99.90;;;;;;5025722;28;20047;-68
2022/11/07 02:26:07;;;;;;;8.20;1.63;;;10.50;99.90;;;;;;5021823;28;20040;-69
2022/11/07 02:28:35;;;;;;;5.38;1.05;;;10.50;99.90;;;;;;5022941;28;20107;-68
2022/11/07 02:31:01;;;;;;;7.07;1.23;;;10.50;99.90;;;;;;5025452;28;20042;-68
2022/11/07 02:33:26;;;;;;;12.52;2.17;;;10.50;99.90;;;;;;5024042;28;20048;-68
2022/11/07 02:35:52;;;;;;;4.25;0.88;;;10.50;99.90;;;;;;5025418;28;20415;-69
2022/11/07 02:38:38;;;;;;;5.05;1.17;;;10.50;99.90;;;;;;5026134;28;20030;-70
2022/11/07 02:41:08;;;;;;;4.45;1.10;;;10.60;99.90;;;;;;5020804;28;20076;-68
2022/11/07 02:43:37;;;;;;;3.97;1.30;;;10.60;99.90;;;;;;5021258;28;20045;-69
2022/11/07 02:46:07;;;;;;;5.25;1.48;;;10.60;99.90;;;;;;5020816;28;20025;-69
2022/11/07 02:48:43;;;;;;;6.40;1.83;;;10.60;99.90;;;;;;5023833;28;20061;-69
2022/11/07 02:51:09;;;;;;;6.35;1.98;;;10.60;99.90;;;;;;5022281;28;20036;-69
2022/11/07 02:53:35;;;;;;;8.38;1.65;;;10.60;99.90;;;;;;5024686;28;20374;-69
2022/11/07 02:56:00;;;;;;;8.50;1.35;;;10.60;99.90;;;;;;5023305;28;20474;-68
2022/11/07 02:58:26;;;;;;;7.40;1.40;;;10.50;99.90;;;;;;5024365;28;20044;-68
2022/11/07 03:00:51;;;;;;;7.70;1.67;;;10.60;99.90;;;;;;5024883;28;20120;-68
2022/11/07 03:03:17;;;;;;;6.70;1.30;;;10.50;99.90;;;;;;5025725;28;20066;-69
2022/11/07 03:05:42;;;;;;;4.53;1.48;;;10.50;99.90;;;;;;5024346;28;20040;-70
2022/11/07 03:08:08;;;;;;;5.57;1.10;;;10.60;99.90;;;;;;5025610;28;20057;-70
2022/11/07 03:10:34;;;;;;;7.25;2.42;;;10.60;99.90;;;;;;5025846;28;20048;-69
2022/11/07 03:13:00;;;;;;;8.35;1.77;;;10.70;99.90;;;;;;5024251;28;20058;-69
2022/11/07 03:15:26;;;;;;;6.38;1.25;;;10.70;99.90;;;;;;5023962;28;20439;-68
2022/11/07 03:17:52;;;;;;;7.78;1.58;;;10.70;99.90;;;;;;5023074;28;20186;-69
2022/11/07 03:20:17;;;;;;;6.07;1.33;;;10.80;99.90;;;;;;5025166;28;20038;-70
2022/11/07 03:22:45;;;;;;;8.43;1.83;;;10.70;99.90;;;;;;5023546;28;20052;-68
2022/11/07 03:25:10;;;;;;;8.88;1.30;;;10.80;99.90;;;;;;5023764;28;20667;-69
2022/11/07 03:27:43;;;;;;;12.23;1.85;;;10.80;99.90;;;;;;5025740;28;20042;-70
2022/11/07 03:30:09;;;;;;;11.93;1.48;;;10.70;99.90;;;;;;5025018;28;20061;-68
2022/11/07 03:32:35;;;;;;;5.85;1.10;;;10.70;99.90;;;;;;5025154;28;20080;-67
2022/11/07 03:35:00;;;;;;;8.52;1.08;;;10.70;99.90;;;;;;5023971;28;20116;-70
2022/11/07 03:37:26;;;;;;;4.03;1.77;;;10.70;99.90;;;;;;5025281;28;20506;-69
2022/11/07 03:39:52;;;;;;;6.95;1.00;;;10.70;99.90;;;;;;5024667;28;20561;-69
2022/11/07 03:42:17;;;;;;;9.05;1.95;;;10.70;99.90;;;;;;5021056;28;20405;-69
2022/11/07 03:44:43;;;;;;;6.05;1.13;;;10.70;99.90;;;;;;5019614;28;20132;-69
2022/11/07 03:47:08;;;;;;;9.52;1.40;;;10.60;99.90;;;;;;5024032;28;20026;-69
2022/11/07 03:49:34;;;;;;;4.72;1.50;;;10.60;99.90;;;;;;5025474;28;20045;-69
2022/11/07 03:51:59;;;;;;;8.10;1.40;;;10.60;99.90;;;;;;5019909;28;20068;-69
2022/11/07 03:54:25;;;;;;;7.55;1.67;;;10.60;99.90;;;;;;5024378;28;20036;-69
2022/11/07 03:56:51;;;;;;;4.28;1.00;;;10.60;99.90;;;;;;5021679;28;20095;-68
2022/11/07 03:59:17;;;;;;;13.48;1.42;;;10.60;99.90;;;;;;5026539;28;20037;-68
2022/11/07 04:01:43;;;;;;;9.70;2.30;;;10.60;99.90;;;;;;5027805;28;20079;-71
2022/11/07 04:04:09;;;;;;;9.20;2.03;;;10.60;99.90;;;;;;5028312;28;20491;-68
2022/11/07 04:06:35;;;;;;;8.95;1.42;;;10.60;99.90;;;;;;5027376;28;20025;-69
2022/11/07 04:09:00;;;;;;;10.07;1.33;;;10.60;99.90;;;;;;5027615;28;20032;-69
2022/11/07 04:19:38;;;;;;;13.00;1.27;;;10.60;99.90;;;;;;5025525;28;20118;-68
2022/11/07 04:22:04;;;;;;;6.93;2.03;;;10.60;99.90;;;;;;5027797;28;20080;-69
2022/11/07 04:24:29;;;;;;;8.95;1.65;;;10.70;99.90;;;;;;5027276;28;20091;-69
2022/11/07 04:29:39;;;;;;;7.35;1.80;;;10.70;99.90;;;;;;5025632;28;20064;-69
2022/11/07 04:32:04;;;;;;;3.90;1.33;;;10.70;99.90;;;;;;5028107;28;20076;-69
2022/11/07 04:34:30;;;;;;;12.20;1.75;;;10.80;99.90;;;;;;5027691;28;20052;-70
2022/11/07 04:36:56;;;;;;;8.85;1.77;;;10.70;99.90;;;;;;5025567;28;20430;-68
2022/11/07 04:39:21;;;;;;;11.55;1.60;;;10.70;99.90;;;;;;5028152;28;20176;-70
2022/11/07 04:41:47;;;;;;;14.00;1.83;;;10.80;99.90;;;;;;5027071;28;20029;-70
2022/11/07 04:44:12;;;;;;;13.95;1.90;;;10.80;99.90;;;;;;5027578;28;20041;-70
2022/11/07 04:46:38;;;;;;;15.75;2.30;;;10.80;99.90;;;;;;5027555;28;20040;-69
2022/11/07 04:49:03;;;;;;;14.77;2.67;;;10.80;99.90;;;;;;5025592;28;20106;-68
2022/11/07 04:51:29;;;;;;;9.00;1.45;;;10.80;99.90;;;;;;5027845;28;20386;-71
2022/11/07 04:53:55;;;;;;;5.88;1.10;;;10.80;99.90;;;;;;5026000;28;20092;-69
2022/11/07 04:56:20;;;;;;;12.50;1.52;;;10.80;99.90;;;;;;5028222;28;20044;-70
2022/11/07 04:58:46;;;;;;;12.68;1.77;;;10.80;99.90;;;;;;5027010;28;20512;-69
2022/11/07 05:01:12;;;;;;;8.13;1.30;;;10.80;99.90;;;;;;5027867;28;20493;-69
2022/11/07 05:03:37;;;;;;;7.65;1.77;;;10.80;99.90;;;;;;5025054;28;20493;-70
2022/11/07 05:06:03;;;;;;;13.80;1.45;;;10.80;99.90;;;;;;5027108;28;20033;-69
2022/11/07 05:08:30;;;;;;;8.27;1.45;;;10.90;99.90;;;;;;5027909;28;20037;-69
2022/11/07 05:10:55;;;;;;;10.70;1.50;;;10.90;99.90;;;;;;5022336;28;20052;-69
2022/11/07 05:13:21;;;;;;;11.25;2.05;;;10.80;99.90;;;;;;5026397;28;20454;-69
2022/11/07 05:15:48;;;;;;;7.50;1.42;;;10.80;99.90;;;;;;5025868;28;20115;-71
2022/11/07 05:18:13;;;;;;;8.32;2.05;;;10.80;99.90;;;;;;5025801;28;20022;-69
2022/11/07 05:20:39;;;;;;;8.27;1.27;;;10.90;99.90;;;;;;5026730;28;20658;-71
2022/11/07 05:23:12;;;;;;;7.57;1.50;;;10.90;99.90;;;;;;5024962;28;20037;-69
2022/11/07 05:25:49;;;;;;;10.90;2.28;;;10.90;99.90;;;;;;5027058;28;20148;-70
2022/11/07 05:28:21;;;;;;;7.97;1.63;;;10.90;99.90;;;;;;5025843;28;20207;-70
2022/11/07 05:30:46;;;;;;;7.82;1.42;;;10.90;99.90;;;;;;5025433;28;20273;-69
2022/11/07 05:33:15;;;;;;;11.18;1.35;;;10.90;99.90;;;;;;5024668;28;20458;-69
2022/11/07 05:35:41;;;;;;;21.73;3.17;;;10.90;99.90;;;;;;5024779;28;20821;-71
2022/11/07 05:38:06;;;;;;;8.25;1.48;;;10.90;99.90;;;;;;5025494;28;20048;-68
2022/11/07 05:40:34;;;;;;;8.35;1.27;;;10.90;99.90;;;;;;5024999;28;20038;-68
2022/11/07 05:43:09;;;;;;;11.75;1.58;;;10.90;99.90;;;;;;5025353;28;20110;-68
2022/11/07 05:45:36;;;;;;;8.07;2.33;;;11.00;99.90;;;;;;5026214;28;20037;-70
2022/11/07 05:48:05;;;;;;;9.80;1.48;;;11.00;99.90;;;;;;5025296;28;20033;-70
2022/11/07 05:50:30;;;;;;;17.15;1.40;;;11.00;99.90;;;;;;5024741;28;20041;-70
2022/11/07 05:52:56;;;;;;;7.80;1.90;;;10.90;99.90;;;;;;5025211;28;20516;-69
2022/11/07 05:55:23;;;;;;;13.95;1.52;;;11.00;99.90;;;;;;5026139;28;20025;-72
2022/11/07 05:57:49;;;;;;;11.02;1.42;;;11.10;99.90;;;;;;5025814;28;20067;-70
2022/11/07 06:00:15;;;;;;;9.48;2.05;;;11.10;99.90;;;;;;5026855;28;20061;-68
2022/11/07 06:02:41;;;;;;;5.85;1.00;;;11.10;99.90;;;;;;5017770;28;20156;-69
2022/11/07 06:05:07;;;;;;;7.07;2.33;;;11.10;99.90;;;;;;5019263;28;20377;-70
2022/11/07 06:07:35;;;;;;;13.95;2.30;;;11.10;99.90;;;;;;5018267;28;20100;-71
2022/11/07 06:10:00;;;;;;;8.93;1.58;;;11.10;99.90;;;;;;5017868;28;20116;-70
2022/11/07 06:12:26;;;;;;;10.65;1.58;;;11.10;99.90;;;;;;5018357;28;20132;-68
2022/11/07 06:14:51;;;;;;;16.33;2.45;;;11.10;99.90;;;;;;5017432;28;20044;-70
2022/11/07 06:17:17;;;;;;;9.68;1.63;;;11.20;99.90;;;;;;5016101;28;20042;-68
2022/11/07 06:19:42;;;;;;;6.68;1.33;;;11.20;99.90;;;;;;5016879;28;20042;-69
2022/11/07 06:22:08;;;;;;;15.77;1.42;;;11.20;99.90;;;;;;5015634;28;20071;-70
2022/11/07 06:24:33;;;;;;;9.50;1.88;;;11.20;99.90;;;;;;5018213;28;20033;-69
2022/11/07 06:26:59;;;;;;;14.30;1.77;;;11.20;99.90;;;;;;5016721;28;20033;-70
2022/11/07 06:29:24;;;;;;;12.82;1.63;;;11.20;99.90;;;;;;5018057;28;20069;-70
2022/11/07 06:31:50;;;;;;;8.57;1.88;;;11.30;99.90;;;;;;5015949;28;20052;-70
2022/11/07 06:34:16;;;;;;;10.05;1.70;;;11.30;99.90;;;;;;5019412;28;20030;-69
2022/11/07 06:36:41;;;;;;;10.75;1.50;;;11.30;99.90;;;;;;5015987;28;20768;-69
2022/11/07 06:39:07;;;;;;;11.60;1.48;;;11.30;99.90;;;;;;5015214;28;20029;-69
2022/11/07 06:41:32;;;;;;;12.88;1.83;;;11.30;99.90;;;;;;5017218;28;20109;-68
2022/11/07 06:43:58;;;;;;;9.07;1.98;;;11.30;99.90;;;;;;5016093;28;20087;-70
2022/11/07 06:46:24;;;;;;;16.42;1.80;;;11.30;99.90;;;;;;5014445;28;20037;-70
2022/11/07 06:48:50;;;;;;;9.65;1.95;;;11.30;99.90;;;;;;5017325;28;20042;-70
2022/11/07 06:51:15;;;;;;;7.07;1.83;;;11.40;99.90;;;;;;5019426;28;20041;-69
2022/11/07 06:53:41;;;;;;;8.10;1.77;;;11.40;99.90;;;;;;5015668;28;20124;-70
2022/11/07 06:56:11;;;;;;;14.38;2.05;;;11.40;99.90;;;;;;5016618;28;20045;-69
2022/11/07 06:58:36;;;;;;;6.00;1.20;;;11.40;99.90;;;;;;5017095;28;20033;-69
2022/11/07 07:01:12;;;;;;;14.20;1.77;;;11.40;99.90;;;;;;5016181;28;20102;-69
2022/11/07 07:03:38;;;;;;;5.72;1.60;;;11.50;99.90;;;;;;5014310;28;20037;-71
2022/11/07 07:06:06;;;;;;;9.02;2.35;;;11.40;99.90;;;;;;5017667;28;20087;-70
2022/11/07 07:08:33;;;;;;;8.23;2.00;;;11.40;99.90;;;;;;5019565;28;20038;-68
2022/11/07 07:11:04;;;;;;;14.38;2.05;;;11.40;99.90;;;;;;5017010;28;20034;-68
2022/11/07 07:13:30;;;;;;;7.45;1.48;;;11.40;99.90;;;;;;5014877;28;20041;-69
2022/11/07 07:15:56;;;;;;;8.75;1.58;;;11.50;99.90;;;;;;5017264;28;20040;-69
2022/11/07 07:18:23;;;;;;;8.18;1.95;;;11.50;99.90;;;;;;5014801;28;20877;-69
2022/11/07 07:20:50;;;;;;;10.07;1.88;;;11.50;99.90;;;;;;5016101;28;20463;-71
2022/11/07 07:23:17;;;;;;;9.98;1.63;;;11.60;99.90;;;;;;5020007;28;20034;-69
2022/11/07 07:25:43;;;;;;;6.65;1.30;;;11.60;99.90;;;;;;5013422;28;20050;-69
2022/11/07 07:28:09;;;;;;;5.68;1.30;;;11.60;99.90;;;;;;5019800;28;20044;-71
2022/11/07 07:30:34;;;;;;;6.95;1.48;;;11.60;99.90;;;;;;5018954;28;20730;-69
2022/11/07 07:33:00;;;;;;;9.68;1.55;;;11.60;99.90;;;;;;5014607;28;20111;-70
2022/11/07 07:35:25;;;;;;;11.50;1.95;;;11.70;99.90;;;;;;5017755;28;20148;-69
2022/11/07 07:37:51;;;;;;;10.88;1.33;;;11.70;99.90;;;;;;5014668;28;20034;-70
2022/11/07 07:40:18;;;;;;;13.40;1.80;;;11.70;99.90;;;;;;5019554;28;20049;-69
2022/11/07 07:42:44;;;;;;;13.73;2.30;;;11.70;99.90;;;;;;5019985;28;20144;-71
2022/11/07 07:45:12;;;;;;;10.98;1.90;;;11.70;99.90;;;;;;5013098;28;20164;-69
2022/11/07 07:47:38;;;;;;;8.93;1.52;;;11.80;99.90;;;;;;5017120;28;20481;-69
2022/11/07 07:50:05;;;;;;;11.20;1.38;;;11.80;99.90;;;;;;5017115;28;20022;-70
2022/11/07 07:52:31;;;;;;;8.02;2.25;;;11.80;99.90;;;;;;5019047;28;20743;-69
2022/11/07 07:54:56;;;;;;;8.90;1.27;;;11.80;99.90;;;;;;5015157;28;20045;-69
2022/11/07 07:57:22;;;;;;;8.05;1.20;;;11.90;99.90;;;;;;5016026;28;20038;-69
2022/11/07 07:59:47;;;;;;;10.00;1.92;;;11.90;99.90;;;;;;5010961;28;20114;-69
2022/11/07 08:02:13;;;;;;;8.88;1.75;;;11.90;99.90;;;;;;5016021;28;20129;-69
2022/11/07 08:04:42;;;;;;;8.55;1.25;;;12.00;99.90;;;;;;5022890;28;20034;-69
2022/11/07 08:07:08;;;;;;;17.45;3.55;;;12.00;99.90;;;;;;5021850;28;20033;-69
2022/11/07 08:09:37;;;;;;;5.88;0.95;;;12.10;99.90;;;;;;5021439;28;20389;-67
2022/11/07 08:12:04;;;;;;;12.27;1.00;;;12.10;99.90;;;;;;5015261;28;20489;-68
2022/11/07 08:14:30;;;;;;;7.13;1.27;;;12.10;99.90;;;;;;5016787;28;20033;-69
2022/11/07 08:16:56;;;;;;;9.90;2.13;;;12.20;99.90;;;;;;5015845;28;20339;-70
2022/11/07 08:19:22;;;;;;;12.88;1.80;;;12.30;99.90;;;;;;5021343;28;20108;-70
2022/11/07 08:21:47;;;;;;;6.25;1.27;;;12.40;99.90;;;;;;5017577;28;20265;-69
2022/11/07 08:24:13;;;;;;;6.55;1.17;;;12.40;99.90;;;;;;5014796;28;20033;-70
2022/11/07 08:26:39;;;;;;;10.27;1.42;;;12.50;99.90;;;;;;5016747;28;20029;-69
2022/11/07 08:29:05;;;;;;;9.23;1.45;;;12.60;99.90;;;;;;5013371;28;20162;-70
2022/11/07 08:31:30;;;;;;;6.32;1.30;;;12.60;99.90;;;;;;5015215;28;20034;-68
2022/11/07 08:33:59;;;;;;;5.35;0.90;;;12.60;99.90;;;;;;5017396;28;20030;-70
2022/11/07 08:36:28;;;;;;;4.20;1.10;;;12.60;99.90;;;;;;5018550;28;20038;-69
2022/11/07 08:38:53;;;;;;;6.93;1.10;;;12.60;99.90;;;;;;5015050;28;20026;-69
2022/11/07 08:41:20;;;;;;;4.07;1.25;;;12.50;99.90;;;;;;5016780;28;20029;-69
2022/11/07 08:43:47;;;;;;;8.00;1.65;;;12.60;99.90;;;;;;5014405;28;20523;-72
2022/11/07 08:46:13;;;;;;;7.38;1.20;;;12.60;99.90;;;;;;5017168;28;20137;-69
2022/11/07 08:48:39;;;;;;;7.18;1.30;;;12.60;99.90;;;;;;5020186;28;20140;-68
2022/11/07 08:51:05;;;;;;;11.50;1.88;;;12.70;99.90;;;;;;5021543;28;20033;-69
2022/11/07 08:53:31;;;;;;;11.48;1.60;;;12.70;99.90;;;;;;5023035;28;20052;-71
2022/11/07 08:56:05;;;;;;;6.32;1.08;;;12.80;99.90;;;;;;5022589;28;20041;-69
2022/11/07 08:58:30;;;;;;;9.40;1.15;;;12.70;99.90;;;;;;5021669;28;20102;-70
2022/11/07 09:00:56;;;;;;;8.95;1.50;;;12.80;99.90;;;;;;5015070;28;20037;-69
2022/11/07 09:03:22;;;;;;;12.05;1.27;;;12.80;99.90;;;;;;5022459;28;20147;-69
2022/11/07 09:05:48;;;;;;;7.82;1.27;;;12.80;99.90;;;;;;5020544;28;20472;-70
2022/11/07 09:08:13;;;;;;;13.35;1.40;;;12.80;99.90;;;;;;5017156;28;20037;-69
2022/11/07 09:10:39;;;;;;;9.00;1.00;;;12.80;99.90;;;;;;5017831;28;20038;-67
2022/11/07 09:13:04;;;;;;;9.75;1.25;;;12.80;99.90;;;;;;5019894;28;20037;-70
2022/11/07 09:15:30;;;;;;;11.77;1.60;;;12.80;99.90;;;;;;5017390;28;20049;-70
2022/11/07 09:18:04;;;;;;;10.15;1.42;;;12.80;99.90;;;;;;5022121;28;20675;-69
2022/11/07 09:20:31;;;;;;;6.30;1.90;;;12.80;99.90;;;;;;5019721;28;20033;-68
2022/11/07 09:22:57;;;;;;;9.63;1.02;;;12.90;99.90;;;;;;5015739;28;20033;-67
2022/11/07 09:25:23;;;;;;;12.73;1.30;;;12.90;99.90;;;;;;5020748;28;20406;-69
2022/11/07 09:27:52;;;;;;;9.25;1.30;;;12.90;99.90;;;;;;5019114;28;20035;-70
2022/11/07 09:30:19;;;;;;;8.25;1.48;;;13.00;99.90;;;;;;5019140;28;20367;-70
2022/11/07 09:32:45;;;;;;;6.65;0.95;;;13.00;99.90;;;;;;5017173;28;20518;-69
2022/11/07 09:35:11;;;;;;;14.38;1.83;;;13.00;99.90;;;;;;5016488;28;20038;-69
2022/11/07 09:37:38;;;;;;;6.10;1.10;;;13.10;99.90;;;;;;5020246;28;20076;-71
2022/11/07 09:40:04;;;;;;;8.63;1.05;;;13.10;99.90;;;;;;5014807;28;20052;-67
2022/11/07 09:42:53;;;;;;;8.55;1.10;;;13.10;99.90;;;;;;5017985;28;20681;-69
2022/11/07 09:45:19;;;;;;;8.73;1.48;;;13.10;99.90;;;;;;5018557;28;20719;-69
2022/11/07 09:47:50;;;;;;;4.35;1.00;;;13.10;99.90;;;;;;5017823;28;20116;-69
2022/11/07 09:50:26;;;;;;;5.80;1.10;;;13.10;99.90;;;;;;5016559;28;20740;-69
2022/11/07 09:53:02;;;;;;;8.35;1.08;;;13.20;99.90;;;;;;5013202;28;20034;-70
2022/11/07 09:55:30;;;;;;;7.93;1.42;;;13.20;99.90;;;;;;5020918;28;20038;-72
2022/11/07 09:58:01;;;;;;;7.10;1.10;;;13.20;99.90;;;;;;5015035;28;20064;-70
2022/11/07 10:00:29;;;;;;;12.60;1.80;;;13.10;99.90;;;;;;5019445;28;20065;-69
2022/11/07 10:02:57;;;;;;;5.93;1.20;;;13.20;99.90;;;;;;5015931;28;20038;-70
2022/11/07 10:05:40;;;;;;;4.60;1.10;;;13.20;99.90;;;;;;5019142;28;20107;-70
2022/11/07 10:08:32;;;;;;;4.38;1.10;;;13.20;99.90;;;;;;5013815;28;20026;-69
2022/11/07 10:11:27;;;;;;;6.13;1.15;;;13.10;99.90;;;;;;5016699;28;20106;-68
2022/11/07 10:14:10;;;;;;;10.75;1.90;;;13.20;99.90;;;;;;5018366;28;20049;-70
2022/11/07 10:16:46;;;;;;;12.73;1.17;;;13.20;99.90;;;;;;5014107;28;20026;-68
2022/11/07 10:19:36;;;;;;;13.30;1.42;;;13.20;99.90;;;;;;5017951;28;20120;-68
2022/11/07 10:22:26;;;;;;;10.75;1.92;;;13.20;99.90;;;;;;5012884;28;20046;-68
2022/11/07 10:25:20;;;;;;;9.13;1.03;;;13.10;99.90;;;;;;5013391;28;20039;-71
2022/11/07 10:28:12;;;;;;;7.40;1.17;;;13.10;99.90;;;;;;5014732;28;20030;-69
2022/11/07 10:30:38;;;;;;;8.75;1.50;;;13.10;99.90;;;;;;5016699;28;20036;-68
2022/11/07 10:33:09;;;;;;;9.75;1.52;;;13.10;99.90;;;;;;5018873;28;20037;-69
2022/11/07 10:35:42;;;;;;;13.68;1.67;;;13.10;99.90;;;;;;5013093;28;20041;-70
2022/11/07 10:38:25;;;;;;;9.90;1.20;;;13.20;99.90;;;;;;5017445;28;20491;-70
2022/11/07 10:40:51;;;;;;;10.00;2.05;;;13.30;99.90;;;;;;5015901;28;20041;-69
2022/11/07 10:43:32;;;;;;;6.72;1.13;;;13.40;99.90;;;;;;5017153;28;20648;-70
2022/11/07 10:46:02;;;;;;;10.32;0.95;;;13.50;99.90;;;;;;5015636;28;20072;-69
2022/11/07 10:48:29;;;;;;;11.70;1.98;;;13.60;99.90;;;;;;5017849;28;20064;-69
2022/11/07 10:50:55;;;;;;;6.43;1.30;;;13.60;99.90;;;;;;5016855;28;20468;-70
2022/11/07 10:53:23;;;;;;;10.40;2.30;;;13.70;99.90;;;;;;5019380;28;20128;-69
2022/11/07 10:55:51;;;;;;;10.23;1.75;;;13.70;99.90;;;;;;5016779;28;20038;-69
2022/11/07 10:58:24;;;;;;;6.78;0.93;;;13.80;99.90;;;;;;5018965;28;20431;-68
2022/11/07 11:00:57;;;;;;;7.55;1.33;;;13.80;99.90;;;;;;5015787;28;20516;-70
2022/11/07 11:03:33;;;;;;;14.80;1.52;;;13.80;99.90;;;;;;5017269;28;20064;-70
2022/11/07 11:06:19;;;;;;;12.25;1.15;;;13.80;99.90;;;;;;5015432;28;20043;-69
2022/11/07 11:08:47;;;;;;;9.45;1.52;;;13.80;99.90;;;;;;5011850;28;20081;-69
2022/11/07 11:11:19;;;;;;;8.55;1.05;;;13.70;99.90;;;;;;5019263;28;20568;-70
2022/11/07 11:13:45;;;;;;;11.57;1.55;;;13.70;99.90;;;;;;5013143;28;20045;-68
2022/11/07 11:16:31;;;;;;;5.63;1.50;;;13.60;99.90;;;;;;5019020;28;20032;-69
2022/11/07 11:18:59;;;;;;;8.85;1.77;;;13.70;99.90;;;;;;5015512;28;20162;-69
2022/11/07 11:21:25;;;;;;;8.82;1.88;;;13.60;99.90;;;;;;5019050;28;20595;-69
2022/11/07 11:23:53;;;;;;;13.75;1.30;;;13.60;99.90;;;;;;5010207;28;20041;-68
2022/11/07 11:26:34;;;;;;;9.50;1.58;;;13.60;99.90;;;;;;5016943;28;20030;-69
2022/11/07 11:29:04;;;;;;;7.22;1.40;;;13.60;99.90;;;;;;5015649;28;20033;-69
2022/11/07 11:31:41;;;;;;;10.65;1.88;;;13.60;99.90;;;;;;5012318;28;20087;-69
2022/11/07 11:34:18;;;;;;;12.27;1.98;;;13.50;99.90;;;;;;5014493;28;20038;-69
2022/11/07 11:36:52;;;;;;;9.63;1.58;;;13.50;99.90;;;;;;5016168;28;20128;-69
2022/11/07 11:39:27;;;;;;;4.80;2.20;;;13.50;99.90;;;;;;5014542;28;20037;-69
2022/11/07 11:41:58;;;;;;;13.73;2.13;;;13.50;99.90;;;;;;5012561;28;20142;-68
2022/11/07 11:44:34;;;;;;;;;;;13.40;99.90;;;;;;5014841;28;20132;-68
2022/11/07 11:47:23;;;;;;;10.02;2.50;;;13.40;99.90;;;;;;5012684;28;19913;-67
2022/11/07 11:50:02;;;;;;;6.82;1.45;;;13.40;99.90;;;;;;5014528;28;20065;-68
2022/11/07 11:52:30;;;;;;;9.35;1.40;;;13.50;99.90;;;;;;5015818;28;20072;-68
2022/11/07 11:54:57;;;;;;;11.77;1.63;;;13.50;99.90;;;;;;5010144;28;20037;-69
2022/11/07 11:57:43;;;;;;;7.68;1.63;;;13.50;99.90;;;;;;5015652;28;20069;-69
2022/11/07 12:00:20;;;;;;;11.68;2.45;;;13.60;99.90;;;;;;5009744;28;20145;-68
2022/11/07 12:03:04;;;;;;;5.28;1.00;;;13.50;99.90;;;;;;5018533;28;20060;-69
2022/11/07 12:06:05;;;;;;;15.25;2.45;;;13.50;99.90;;;;;;5013411;28;20125;-69
2022/11/07 12:08:52;;;;;;;7.00;1.77;;;13.50;99.90;;;;;;5001611;28;20033;-69
2022/11/07 12:11:37;;;;;;;7.03;2.10;;;13.60;99.90;;;;;;5010168;28;20033;-69
2022/11/07 12:14:34;;;;;;;5.97;1.40;;;13.60;99.90;;;;;;5015386;28;20124;-69
2022/11/07 12:17:16;;;;;;;9.15;1.67;;;13.60;99.90;;;;;;5015362;28;20038;-69
2022/11/07 12:20:00;;;;;;;13.63;1.60;;;13.60;99.90;;;;;;5012171;28;20033;-68
2022/11/07 12:22:48;;;;;;;5.78;1.15;;;13.70;99.90;;;;;;5018183;28;20053;-69
2022/11/07 12:25:23;;;;;;;10.95;2.10;;;13.70;99.90;;;;;;5018961;28;20412;-70
2022/11/07 12:27:52;;;;;;;7.00;1.77;;;13.70;99.90;;;;;;5016002;28;20036;-68
2022/11/07 12:30:47;;;;;;;10.50;1.55;;;13.70;99.90;;;;;;5018634;28;20108;-69
2022/11/07 12:33:38;;;;;;;7.45;1.00;;;13.80;99.90;;;;;;5016467;28;20073;-71
2022/11/07 12:36:42;;;;;;;7.72;1.35;;;13.80;99.90;;;;;;5020037;28;20750;-70
2022/11/07 12:39:26;;;;;;;6.47;0.90;;;13.90;99.90;;;;;;5019172;28;20064;-68
2022/11/07 12:42:07;;;;;;;6.03;1.48;;;13.90;99.90;;;;;;5021371;28;20069;-69
2022/11/07 12:44:45;;;;;;;5.82;0.85;;;13.90;99.90;;;;;;5020942;28;20034;-69
2022/11/07 12:47:43;;;;;;;8.63;1.42;;;13.90;99.90;;;;;;5016404;28;20087;-70
2022/11/07 12:50:25;;;;;;;24.08;2.83;;;13.90;99.90;;;;;;5017987;28;20132;-68
2022/11/07 12:53:01;;;;;;;6.38;1.23;;;14.00;99.90;;;;;;5017995;28;20033;-69
2022/11/07 12:55:53;;;;;;;13.65;1.77;;;13.90;99.90;;;;;;5020672;28;20037;-72
2022/11/07 12:58:25;;;;;;;9.55;1.17;;;13.90;99.90;;;;;;5016662;28;20033;-69
2022/11/07 13:00:51;;;;;;;9.75;1.65;;;13.90;99.90;;;;;;5018611;28;20034;-69
2022/11/07 13:03:29;;;;;;;8.68;1.15;;;13.90;99.90;;;;;;5019109;28;20043;-67
2022/11/07 13:06:14;;;;;;;8.68;1.08;;;13.90;99.90;;;;;;5019803;28;20056;-69
2022/11/07 13:08:52;;;;;;;6.57;1.02;;;13.80;99.90;;;;;;5019941;28;20048;-68
2022/11/07 13:11:32;;;;;;;7.25;1.30;;;13.70;99.90;;;;;;5016618;28;20349;-68